sensor_id;sensor_type;location;lat;lon;timestamp;P1;durP1;ratioP1;P2;durP2;ratioP2
26696;SDS011;14312;52.614;13.496;2023-08-07T00:00:45;2.00;;;1.77;;
26696;SDS011;14312;52.614;13.496;2023-08-07T00:03:31;1.75;;;1.60;;
26696;SDS011;14312;52.614;13.496;2023-08-07T00:06:17;2.10;;;1.70;;
26696;SDS011;14312;52.614;13.496;2023-08-07T00:09:03;2.80;;;1.80;;
26696;SDS011;14312;52.614;13.496;2023-08-07T00:11:49;2.53;;;1.90;;
26696;SDS011;14312;52.614;13.496;2023-08-07T00:14:35;1.98;;;1.77;;
26696;SDS011;14312;52.614;13.496;2023-08-07T00:17:21;2.40;;;1.85;;
26696;SDS011;14312;52.614;13.496;2023-08-07T00:20:07;1.80;;;1.70;;
26696;SDS011;14312;52.614;13.496;2023-08-07T00:22:53;2.53;;;1.90;;
26696;SDS011;14312;52.614;13.496;2023-08-07T00:25:39;2.38;;;1.98;;
26696;SDS011;14312;52.614;13.496;2023-08-07T00:28:25;1.92;;;1.73;;
26696;SDS011;14312;52.614;13.496;2023-08-07T00:31:11;2.08;;;1.70;;
26696;SDS011;14312;52.614;13.496;2023-08-07T00:33:58;1.73;;;1.63;;
26696;SDS011;14312;52.614;13.496;2023-08-07T00:36:45;1.90;;;1.70;;
26696;SDS011;14312;52.614;13.496;2023-08-07T00:39:30;2.42;;;1.90;;
26696;SDS011;14312;52.614;13.496;2023-08-07T00:42:16;2.05;;;1.85;;
26696;SDS011;14312;52.614;13.496;2023-08-07T00:45:02;2.88;;;1.42;;
26696;SDS011;14312;52.614;13.496;2023-08-07T00:47:49;1.98;;;1.60;;
26696;SDS011;14312;52.614;13.496;2023-08-07T00:50:35;1.60;;;1.50;;
26696;SDS011;14312;52.614;13.496;2023-08-07T00:53:22;1.65;;;1.55;;
26696;SDS011;14312;52.614;13.496;2023-08-07T00:56:08;1.45;;;1.35;;
26696;SDS011;14312;52.614;13.496;2023-08-07T00:58:54;1.58;;;1.48;;
26696;SDS011;14312;52.614;13.496;2023-08-07T01:01:40;1.77;;;1.67;;
26696;SDS011;14312;52.614;13.496;2023-08-07T01:04:26;1.80;;;1.70;;
26696;SDS011;14312;52.614;13.496;2023-08-07T01:07:12;2.15;;;1.60;;
26696;SDS011;14312;52.614;13.496;2023-08-07T01:09:58;1.88;;;1.77;;
26696;SDS011;14312;52.614;13.496;2023-08-07T01:12:50;3.10;;;1.75;;
26696;SDS011;14312;52.614;13.496;2023-08-07T01:15:43;1.60;;;1.50;;
26696;SDS011;14312;52.614;13.496;2023-08-07T01:18:30;2.00;;;1.60;;
26696;SDS011;14312;52.614;13.496;2023-08-07T01:21:17;1.70;;;1.60;;
26696;SDS011;14312;52.614;13.496;2023-08-07T01:24:04;1.85;;;1.75;;
26696;SDS011;14312;52.614;13.496;2023-08-07T01:26:50;1.77;;;1.67;;
26696;SDS011;14312;52.614;13.496;2023-08-07T01:29:43;2.00;;;1.80;;
26696;SDS011;14312;52.614;13.496;2023-08-07T01:32:58;2.20;;;1.90;;
26696;SDS011;14312;52.614;13.496;2023-08-07T01:35:46;2.10;;;1.90;;
26696;SDS011;14312;52.614;13.496;2023-08-07T01:38:33;1.90;;;1.80;;
26696;SDS011;14312;52.614;13.496;2023-08-07T01:41:21;1.55;;;1.45;;
26696;SDS011;14312;52.614;13.496;2023-08-07T01:44:07;1.73;;;1.63;;
26696;SDS011;14312;52.614;13.496;2023-08-07T01:46:53;1.90;;;1.80;;
26696;SDS011;14312;52.614;13.496;2023-08-07T01:49:39;1.52;;;1.42;;
26696;SDS011;14312;52.614;13.496;2023-08-07T01:52:26;1.60;;;1.50;;
26696;SDS011;14312;52.614;13.496;2023-08-07T01:55:15;1.60;;;1.50;;
26696;SDS011;14312;52.614;13.496;2023-08-07T01:58:02;1.85;;;1.60;;
26696;SDS011;14312;52.614;13.496;2023-08-07T02:00:48;1.73;;;1.63;;
26696;SDS011;14312;52.614;13.496;2023-08-07T02:03:34;1.90;;;1.77;;
26696;SDS011;14312;52.614;13.496;2023-08-07T02:06:20;2.00;;;1.80;;
26696;SDS011;14312;52.614;13.496;2023-08-07T02:09:06;2.20;;;1.98;;
26696;SDS011;14312;52.614;13.496;2023-08-07T02:11:52;2.45;;;1.75;;
26696;SDS011;14312;52.614;13.496;2023-08-07T02:14:38;2.10;;;1.67;;
26696;SDS011;14312;52.614;13.496;2023-08-07T02:17:24;2.17;;;1.98;;
26696;SDS011;14312;52.614;13.496;2023-08-07T02:20:11;2.15;;;1.95;;
26696;SDS011;14312;52.614;13.496;2023-08-07T02:22:56;1.90;;;1.77;;
26696;SDS011;14312;52.614;13.496;2023-08-07T02:25:42;3.22;;;2.17;;
26696;SDS011;14312;52.614;13.496;2023-08-07T02:28:30;2.05;;;1.88;;
26696;SDS011;14312;52.614;13.496;2023-08-07T02:31:16;3.10;;;2.15;;
26696;SDS011;14312;52.614;13.496;2023-08-07T02:34:02;2.38;;;2.17;;
26696;SDS011;14312;52.614;13.496;2023-08-07T02:36:48;2.30;;;2.10;;
26696;SDS011;14312;52.614;13.496;2023-08-07T02:39:34;3.58;;;2.20;;
26696;SDS011;14312;52.614;13.496;2023-08-07T02:42:20;2.83;;;2.35;;
26696;SDS011;14312;52.614;13.496;2023-08-07T02:45:06;2.30;;;2.10;;
26696;SDS011;14312;52.614;13.496;2023-08-07T02:47:52;3.20;;;2.15;;
26696;SDS011;14312;52.614;13.496;2023-08-07T02:50:38;2.00;;;1.90;;
26696;SDS011;14312;52.614;13.496;2023-08-07T02:53:24;3.55;;;2.30;;
26696;SDS011;14312;52.614;13.496;2023-08-07T02:56:10;2.60;;;1.90;;
26696;SDS011;14312;52.614;13.496;2023-08-07T02:58:56;2.30;;;2.10;;
26696;SDS011;14312;52.614;13.496;2023-08-07T03:01:44;2.22;;;2.00;;
26696;SDS011;14312;52.614;13.496;2023-08-07T03:04:30;2.53;;;2.33;;
26696;SDS011;14312;52.614;13.496;2023-08-07T03:07:16;3.10;;;2.40;;
26696;SDS011;14312;52.614;13.496;2023-08-07T03:10:02;3.60;;;2.70;;
26696;SDS011;14312;52.614;13.496;2023-08-07T03:12:49;3.13;;;2.67;;
26696;SDS011;14312;52.614;13.496;2023-08-07T03:15:35;2.63;;;2.42;;
26696;SDS011;14312;52.614;13.496;2023-08-07T03:18:21;2.80;;;2.55;;
26696;SDS011;14312;52.614;13.496;2023-08-07T03:21:07;2.85;;;2.55;;
26696;SDS011;14312;52.614;13.496;2023-08-07T03:23:53;2.40;;;2.20;;
26696;SDS011;14312;52.614;13.496;2023-08-07T03:26:39;3.30;;;2.80;;
26696;SDS011;14312;52.614;13.496;2023-08-07T03:29:25;3.78;;;2.55;;
26696;SDS011;14312;52.614;13.496;2023-08-07T03:32:11;3.25;;;2.75;;
26696;SDS011;14312;52.614;13.496;2023-08-07T03:34:57;3.40;;;2.25;;
26696;SDS011;14312;52.614;13.496;2023-08-07T03:37:43;2.92;;;2.53;;
26696;SDS011;14312;52.614;13.496;2023-08-07T03:40:28;2.92;;;2.60;;
26696;SDS011;14312;52.614;13.496;2023-08-07T03:43:14;3.10;;;2.80;;
26696;SDS011;14312;52.614;13.496;2023-08-07T03:46:00;4.32;;;2.75;;
26696;SDS011;14312;52.614;13.496;2023-08-07T03:48:46;2.95;;;2.65;;
26696;SDS011;14312;52.614;13.496;2023-08-07T03:51:32;3.15;;;2.40;;
26696;SDS011;14312;52.614;13.496;2023-08-07T03:54:18;2.88;;;2.40;;
26696;SDS011;14312;52.614;13.496;2023-08-07T03:57:04;3.03;;;2.80;;
26696;SDS011;14312;52.614;13.496;2023-08-07T03:59:50;5.10;;;2.78;;
26696;SDS011;14312;52.614;13.496;2023-08-07T04:02:35;2.70;;;2.50;;
26696;SDS011;14312;52.614;13.496;2023-08-07T04:05:21;5.38;;;3.05;;
26696;SDS011;14312;52.614;13.496;2023-08-07T04:08:07;3.08;;;2.78;;
26696;SDS011;14312;52.614;13.496;2023-08-07T04:11:05;3.88;;;2.60;;
26696;SDS011;14312;52.614;13.496;2023-08-07T04:13:52;5.00;;;3.15;;
26696;SDS011;14312;52.614;13.496;2023-08-07T04:16:38;2.90;;;2.70;;
26696;SDS011;14312;52.614;13.496;2023-08-07T04:19:24;3.15;;;2.65;;
26696;SDS011;14312;52.614;13.496;2023-08-07T04:22:10;3.47;;;2.78;;
26696;SDS011;14312;52.614;13.496;2023-08-07T04:24:56;3.80;;;2.88;;
26696;SDS011;14312;52.614;13.496;2023-08-07T04:27:42;3.15;;;2.75;;
26696;SDS011;14312;52.614;13.496;2023-08-07T04:30:28;2.80;;;2.60;;
26696;SDS011;14312;52.614;13.496;2023-08-07T04:33:14;3.33;;;2.70;;
26696;SDS011;14312;52.614;13.496;2023-08-07T04:35:59;2.20;;;2.10;;
26696;SDS011;14312;52.614;13.496;2023-08-07T04:38:45;3.30;;;2.55;;
26696;SDS011;14312;52.614;13.496;2023-08-07T04:41:31;3.78;;;2.90;;
26696;SDS011;14312;52.614;13.496;2023-08-07T04:44:17;3.95;;;2.50;;
26696;SDS011;14312;52.614;13.496;2023-08-07T04:47:03;2.85;;;2.53;;
26696;SDS011;14312;52.614;13.496;2023-08-07T04:49:50;3.00;;;2.70;;
26696;SDS011;14312;52.614;13.496;2023-08-07T04:52:36;3.00;;;2.70;;
26696;SDS011;14312;52.614;13.496;2023-08-07T04:55:21;2.75;;;2.45;;
26696;SDS011;14312;52.614;13.496;2023-08-07T04:58:07;2.70;;;2.40;;
26696;SDS011;14312;52.614;13.496;2023-08-07T05:00:56;2.58;;;2.38;;
26696;SDS011;14312;52.614;13.496;2023-08-07T05:03:43;3.30;;;2.78;;
26696;SDS011;14312;52.614;13.496;2023-08-07T05:06:29;4.00;;;2.90;;
26696;SDS011;14312;52.614;13.496;2023-08-07T05:09:14;3.38;;;2.67;;
26696;SDS011;14312;52.614;13.496;2023-08-07T05:12:00;2.97;;;2.75;;
26696;SDS011;14312;52.614;13.496;2023-08-07T05:14:46;3.13;;;2.83;;
26696;SDS011;14312;52.614;13.496;2023-08-07T05:17:32;2.75;;;2.55;;
26696;SDS011;14312;52.614;13.496;2023-08-07T05:20:18;3.75;;;2.70;;
26696;SDS011;14312;52.614;13.496;2023-08-07T05:23:04;5.75;;;2.80;;
26696;SDS011;14312;52.614;13.496;2023-08-07T05:25:51;2.95;;;2.67;;
26696;SDS011;14312;52.614;13.496;2023-08-07T05:28:37;2.28;;;2.08;;
26696;SDS011;14312;52.614;13.496;2023-08-07T05:31:23;2.50;;;2.30;;
26696;SDS011;14312;52.614;13.496;2023-08-07T05:34:10;3.20;;;2.60;;
26696;SDS011;14312;52.614;13.496;2023-08-07T05:36:56;3.05;;;2.75;;
26696;SDS011;14312;52.614;13.496;2023-08-07T05:39:42;2.47;;;2.25;;
26696;SDS011;14312;52.614;13.496;2023-08-07T05:42:28;2.30;;;2.10;;
26696;SDS011;14312;52.614;13.496;2023-08-07T05:45:14;2.72;;;1.98;;
26696;SDS011;14312;52.614;13.496;2023-08-07T05:48:00;2.50;;;2.20;;
26696;SDS011;14312;52.614;13.496;2023-08-07T05:50:46;2.80;;;2.40;;
26696;SDS011;14312;52.614;13.496;2023-08-07T05:53:31;2.33;;;2.13;;
26696;SDS011;14312;52.614;13.496;2023-08-07T05:56:18;3.05;;;2.30;;
26696;SDS011;14312;52.614;13.496;2023-08-07T05:59:04;3.50;;;2.25;;
26696;SDS011;14312;52.614;13.496;2023-08-07T06:01:50;2.45;;;2.25;;
26696;SDS011;14312;52.614;13.496;2023-08-07T06:04:37;2.40;;;2.20;;
26696;SDS011;14312;52.614;13.496;2023-08-07T06:07:23;2.72;;;2.38;;
26696;SDS011;14312;52.614;13.496;2023-08-07T06:10:09;3.67;;;2.53;;
26696;SDS011;14312;52.614;13.496;2023-08-07T06:12:55;2.50;;;2.15;;
26696;SDS011;14312;52.614;13.496;2023-08-07T06:15:41;2.10;;;1.90;;
26696;SDS011;14312;52.614;13.496;2023-08-07T06:18:27;3.05;;;2.20;;
26696;SDS011;14312;52.614;13.496;2023-08-07T06:21:12;2.80;;;2.00;;
26696;SDS011;14312;52.614;13.496;2023-08-07T06:23:58;2.30;;;2.10;;
26696;SDS011;14312;52.614;13.496;2023-08-07T06:26:44;2.28;;;2.10;;
26696;SDS011;14312;52.614;13.496;2023-08-07T06:29:30;2.20;;;2.00;;
26696;SDS011;14312;52.614;13.496;2023-08-07T06:32:16;2.08;;;1.88;;
26696;SDS011;14312;52.614;13.496;2023-08-07T06:35:03;3.03;;;1.80;;
26696;SDS011;14312;52.614;13.496;2023-08-07T06:37:50;2.63;;;1.77;;
26696;SDS011;14312;52.614;13.496;2023-08-07T06:40:36;2.08;;;1.88;;
26696;SDS011;14312;52.614;13.496;2023-08-07T06:43:22;2.75;;;2.05;;
26696;SDS011;14312;52.614;13.496;2023-08-07T06:46:08;2.25;;;2.00;;
26696;SDS011;14312;52.614;13.496;2023-08-07T06:48:56;2.20;;;2.00;;
26696;SDS011;14312;52.614;13.496;2023-08-07T06:51:41;1.60;;;1.50;;
26696;SDS011;14312;52.614;13.496;2023-08-07T06:54:27;2.03;;;1.77;;
26696;SDS011;14312;52.614;13.496;2023-08-07T06:57:13;2.40;;;2.20;;
26696;SDS011;14312;52.614;13.496;2023-08-07T06:59:59;2.20;;;1.65;;
26696;SDS011;14312;52.614;13.496;2023-08-07T07:02:45;2.10;;;1.80;;
26696;SDS011;14312;52.614;13.496;2023-08-07T07:05:31;2.03;;;1.80;;
26696;SDS011;14312;52.614;13.496;2023-08-07T07:08:18;1.88;;;1.70;;
26696;SDS011;14312;52.614;13.496;2023-08-07T07:11:04;1.75;;;1.65;;
26696;SDS011;14312;52.614;13.496;2023-08-07T07:13:50;1.80;;;1.70;;
26696;SDS011;14312;52.614;13.496;2023-08-07T07:16:37;2.63;;;1.80;;
26696;SDS011;14312;52.614;13.496;2023-08-07T07:19:23;3.10;;;1.70;;
26696;SDS011;14312;52.614;13.496;2023-08-07T07:22:09;4.25;;;1.88;;
26696;SDS011;14312;52.614;13.496;2023-08-07T07:24:55;2.15;;;1.50;;
26696;SDS011;14312;52.614;13.496;2023-08-07T07:27:42;2.38;;;1.85;;
26696;SDS011;14312;52.614;13.496;2023-08-07T07:30:28;2.33;;;1.60;;
26696;SDS011;14312;52.614;13.496;2023-08-07T07:33:14;1.50;;;1.40;;
26696;SDS011;14312;52.614;13.496;2023-08-07T07:36:00;2.15;;;1.42;;
26696;SDS011;14312;52.614;13.496;2023-08-07T07:38:47;1.95;;;1.80;;
26696;SDS011;14312;52.614;13.496;2023-08-07T07:41:33;1.48;;;1.38;;
26696;SDS011;14312;52.614;13.496;2023-08-07T07:44:19;1.70;;;1.60;;
26696;SDS011;14312;52.614;13.496;2023-08-07T07:47:05;2.47;;;1.63;;
26696;SDS011;14312;52.614;13.496;2023-08-07T07:50:03;1.83;;;1.70;;
26696;SDS011;14312;52.614;13.496;2023-08-07T07:52:53;1.40;;;1.30;;
26696;SDS011;14312;52.614;13.496;2023-08-07T07:55:39;1.65;;;1.40;;
26696;SDS011;14312;52.614;13.496;2023-08-07T07:58:25;1.60;;;1.48;;
26696;SDS011;14312;52.614;13.496;2023-08-07T08:01:11;2.03;;;1.63;;
26696;SDS011;14312;52.614;13.496;2023-08-07T08:03:57;3.10;;;1.50;;
26696;SDS011;14312;52.614;13.496;2023-08-07T08:06:43;3.85;;;1.70;;
26696;SDS011;14312;52.614;13.496;2023-08-07T08:09:30;1.98;;;1.65;;
26696;SDS011;14312;52.614;13.496;2023-08-07T08:12:15;2.40;;;1.63;;
26696;SDS011;14312;52.614;13.496;2023-08-07T08:15:02;1.80;;;1.48;;
26696;SDS011;14312;52.614;13.496;2023-08-07T08:17:49;2.53;;;1.42;;
26696;SDS011;14312;52.614;13.496;2023-08-07T08:20:35;2.35;;;1.63;;
26696;SDS011;14312;52.614;13.496;2023-08-07T08:23:21;3.08;;;1.42;;
26696;SDS011;14312;52.614;13.496;2023-08-07T08:26:07;1.40;;;1.30;;
26696;SDS011;14312;52.614;13.496;2023-08-07T08:28:53;1.40;;;1.20;;
26696;SDS011;14312;52.614;13.496;2023-08-07T08:31:39;1.52;;;1.42;;
26696;SDS011;14312;52.614;13.496;2023-08-07T08:34:25;1.60;;;1.50;;
26696;SDS011;14312;52.614;13.496;2023-08-07T08:37:12;1.55;;;1.45;;
26696;SDS011;14312;52.614;13.496;2023-08-07T08:39:58;2.22;;;1.40;;
26696;SDS011;14312;52.614;13.496;2023-08-07T08:42:44;2.47;;;1.60;;
26696;SDS011;14312;52.614;13.496;2023-08-07T08:45:31;2.83;;;1.40;;
26696;SDS011;14312;52.614;13.496;2023-08-07T08:48:19;1.98;;;1.48;;
26696;SDS011;14312;52.614;13.496;2023-08-07T08:51:09;1.80;;;1.70;;
26696;SDS011;14312;52.614;13.496;2023-08-07T08:53:56;2.10;;;1.60;;
26696;SDS011;14312;52.614;13.496;2023-08-07T08:56:43;1.92;;;1.63;;
26696;SDS011;14312;52.614;13.496;2023-08-07T08:59:29;2.05;;;1.58;;
26696;SDS011;14312;52.614;13.496;2023-08-07T09:02:16;1.65;;;1.48;;
26696;SDS011;14312;52.614;13.496;2023-08-07T09:05:02;1.80;;;1.70;;
26696;SDS011;14312;52.614;13.496;2023-08-07T09:07:49;2.47;;;1.80;;
26696;SDS011;14312;52.614;13.496;2023-08-07T09:10:35;5.30;;;1.90;;
26696;SDS011;14312;52.614;13.496;2023-08-07T09:13:23;2.88;;;1.60;;
26696;SDS011;14312;52.614;13.496;2023-08-07T09:16:12;1.45;;;1.35;;
26696;SDS011;14312;52.614;13.496;2023-08-07T09:18:58;1.95;;;1.52;;
26696;SDS011;14312;52.614;13.496;2023-08-07T09:21:44;1.40;;;1.30;;
26696;SDS011;14312;52.614;13.496;2023-08-07T09:24:30;2.05;;;1.45;;
26696;SDS011;14312;52.614;13.496;2023-08-07T09:27:16;1.90;;;1.40;;
26696;SDS011;14312;52.614;13.496;2023-08-07T09:30:02;3.17;;;1.58;;
26696;SDS011;14312;52.614;13.496;2023-08-07T09:32:48;1.67;;;1.58;;
26696;SDS011;14312;52.614;13.496;2023-08-07T09:35:35;1.67;;;1.58;;
26696;SDS011;14312;52.614;13.496;2023-08-07T09:38:22;2.05;;;1.60;;
26696;SDS011;14312;52.614;13.496;2023-08-07T09:41:08;1.77;;;1.58;;
26696;SDS011;14312;52.614;13.496;2023-08-07T09:43:54;2.35;;;1.65;;
26696;SDS011;14312;52.614;13.496;2023-08-07T09:46:41;1.70;;;1.40;;
26696;SDS011;14312;52.614;13.496;2023-08-07T09:49:34;1.60;;;1.50;;
26696;SDS011;14312;52.614;13.496;2023-08-07T09:52:20;1.60;;;1.50;;
26696;SDS011;14312;52.614;13.496;2023-08-07T09:55:06;2.22;;;1.40;;
26696;SDS011;14312;52.614;13.496;2023-08-07T09:57:53;1.67;;;1.42;;
26696;SDS011;14312;52.614;13.496;2023-08-07T10:00:40;2.22;;;1.50;;
26696;SDS011;14312;52.614;13.496;2023-08-07T10:03:27;1.27;;;1.13;;
26696;SDS011;14312;52.614;13.496;2023-08-07T10:06:13;2.28;;;1.40;;
26696;SDS011;14312;52.614;13.496;2023-08-07T10:08:59;1.73;;;1.63;;
26696;SDS011;14312;52.614;13.496;2023-08-07T10:11:46;1.67;;;1.35;;
26696;SDS011;14312;52.614;13.496;2023-08-07T10:14:34;1.67;;;1.42;;
26696;SDS011;14312;52.614;13.496;2023-08-07T10:17:23;2.28;;;1.58;;
26696;SDS011;14312;52.614;13.496;2023-08-07T10:20:09;2.45;;;1.77;;
26696;SDS011;14312;52.614;13.496;2023-08-07T10:23:07;1.83;;;1.50;;
26696;SDS011;14312;52.614;13.496;2023-08-07T10:25:54;2.47;;;1.55;;
26696;SDS011;14312;52.614;13.496;2023-08-07T10:28:41;1.35;;;1.25;;
26696;SDS011;14312;52.614;13.496;2023-08-07T10:31:28;1.90;;;1.45;;
26696;SDS011;14312;52.614;13.496;2023-08-07T10:34:17;2.13;;;1.45;;
26696;SDS011;14312;52.614;13.496;2023-08-07T10:37:06;2.85;;;1.50;;
26696;SDS011;14312;52.614;13.496;2023-08-07T10:40:03;2.35;;;1.60;;
26696;SDS011;14312;52.614;13.496;2023-08-07T10:45:45;1.67;;;1.40;;
26696;SDS011;14312;52.614;13.496;2023-08-07T10:48:37;1.60;;;1.35;;
26696;SDS011;14312;52.614;13.496;2023-08-07T10:51:27;2.67;;;1.50;;
26696;SDS011;14312;52.614;13.496;2023-08-07T10:54:16;2.40;;;1.30;;
26696;SDS011;14312;52.614;13.496;2023-08-07T10:57:04;3.10;;;1.42;;
26696;SDS011;14312;52.614;13.496;2023-08-07T11:02:42;1.83;;;1.30;;
26696;SDS011;14312;52.614;13.496;2023-08-07T11:05:28;1.58;;;1.27;;
26696;SDS011;14312;52.614;13.496;2023-08-07T11:08:14;1.80;;;1.20;;
26696;SDS011;14312;52.614;13.496;2023-08-07T11:11:03;2.20;;;1.42;;
26696;SDS011;14312;52.614;13.496;2023-08-07T11:13:50;2.08;;;1.77;;
26696;SDS011;14312;52.614;13.496;2023-08-07T11:16:36;2.13;;;1.50;;
26696;SDS011;14312;52.614;13.496;2023-08-07T11:19:22;2.65;;;1.58;;
26696;SDS011;14312;52.614;13.496;2023-08-07T11:22:08;2.08;;;1.20;;
26696;SDS011;14312;52.614;13.496;2023-08-07T11:24:55;2.13;;;1.50;;
26696;SDS011;14312;52.614;13.496;2023-08-07T11:27:43;2.63;;;1.65;;
26696;SDS011;14312;52.614;13.496;2023-08-07T11:30:29;4.00;;;1.70;;
26696;SDS011;14312;52.614;13.496;2023-08-07T11:33:15;3.35;;;1.70;;
26696;SDS011;14312;52.614;13.496;2023-08-07T11:36:01;2.47;;;1.40;;
26696;SDS011;14312;52.614;13.496;2023-08-07T11:38:47;2.90;;;1.40;;
26696;SDS011;14312;52.614;13.496;2023-08-07T11:41:33;1.15;;;1.05;;
26696;SDS011;14312;52.614;13.496;2023-08-07T11:44:19;1.63;;;1.20;;
26696;SDS011;14312;52.614;13.496;2023-08-07T11:47:05;1.33;;;1.23;;
26696;SDS011;14312;52.614;13.496;2023-08-07T11:49:52;1.48;;;1.30;;
26696;SDS011;14312;52.614;13.496;2023-08-07T11:52:38;1.83;;;1.23;;
26696;SDS011;14312;52.614;13.496;2023-08-07T11:55:27;1.65;;;1.40;;
26696;SDS011;14312;52.614;13.496;2023-08-07T11:58:14;2.38;;;1.83;;
26696;SDS011;14312;52.614;13.496;2023-08-07T12:01:03;2.03;;;1.50;;
26696;SDS011;14312;52.614;13.496;2023-08-07T12:04:16;2.72;;;1.90;;
26696;SDS011;14312;52.614;13.496;2023-08-07T12:07:02;2.30;;;1.20;;
26696;SDS011;14312;52.614;13.496;2023-08-07T12:09:48;3.08;;;1.77;;
26696;SDS011;14312;52.614;13.496;2023-08-07T12:12:38;3.03;;;1.60;;
26696;SDS011;14312;52.614;13.496;2023-08-07T12:15:24;2.97;;;1.90;;
26696;SDS011;14312;52.614;13.496;2023-08-07T12:18:13;1.60;;;1.45;;
26696;SDS011;14312;52.614;13.496;2023-08-07T12:21:01;2.72;;;1.70;;
26696;SDS011;14312;52.614;13.496;2023-08-07T12:23:49;3.33;;;1.83;;
26696;SDS011;14312;52.614;13.496;2023-08-07T12:26:36;2.13;;;1.63;;
26696;SDS011;14312;52.614;13.496;2023-08-07T12:29:22;2.15;;;1.40;;
26696;SDS011;14312;52.614;13.496;2023-08-07T12:32:10;2.38;;;1.60;;
26696;SDS011;14312;52.614;13.496;2023-08-07T12:34:56;2.78;;;1.50;;
26696;SDS011;14312;52.614;13.496;2023-08-07T12:37:42;2.97;;;1.73;;
26696;SDS011;14312;52.614;13.496;2023-08-07T12:40:28;2.00;;;1.50;;
26696;SDS011;14312;52.614;13.496;2023-08-07T12:43:15;2.28;;;1.63;;
26696;SDS011;14312;52.614;13.496;2023-08-07T12:46:01;2.30;;;1.58;;
26696;SDS011;14312;52.614;13.496;2023-08-07T12:48:47;4.32;;;1.80;;
26696;SDS011;14312;52.614;13.496;2023-08-07T12:51:33;8.55;;;1.77;;
26696;SDS011;14312;52.614;13.496;2023-08-07T12:54:19;2.40;;;1.70;;
26696;SDS011;14312;52.614;13.496;2023-08-07T12:57:05;3.35;;;1.58;;
26696;SDS011;14312;52.614;13.496;2023-08-07T12:59:51;3.25;;;1.73;;
26696;SDS011;14312;52.614;13.496;2023-08-07T13:02:37;2.95;;;1.63;;
26696;SDS011;14312;52.614;13.496;2023-08-07T13:05:23;2.50;;;1.70;;
26696;SDS011;14312;52.614;13.496;2023-08-07T13:08:09;2.55;;;1.50;;
26696;SDS011;14312;52.614;13.496;2023-08-07T13:10:55;3.00;;;1.60;;
26696;SDS011;14312;52.614;13.496;2023-08-07T13:13:41;3.17;;;1.67;;
26696;SDS011;14312;52.614;13.496;2023-08-07T13:16:27;3.63;;;2.10;;
26696;SDS011;14312;52.614;13.496;2023-08-07T13:19:13;3.88;;;2.20;;
26696;SDS011;14312;52.614;13.496;2023-08-07T13:21:59;2.42;;;1.70;;
26696;SDS011;14312;52.614;13.496;2023-08-07T13:24:45;3.03;;;1.80;;
26696;SDS011;14312;52.614;13.496;2023-08-07T13:27:31;3.85;;;2.03;;
26696;SDS011;14312;52.614;13.496;2023-08-07T13:30:17;5.85;;;2.03;;
26696;SDS011;14312;52.614;13.496;2023-08-07T13:33:03;4.32;;;2.15;;
26696;SDS011;14312;52.614;13.496;2023-08-07T13:35:49;3.50;;;1.90;;
26696;SDS011;14312;52.614;13.496;2023-08-07T13:38:35;3.20;;;1.80;;
26696;SDS011;14312;52.614;13.496;2023-08-07T13:41:21;2.13;;;1.58;;
26696;SDS011;14312;52.614;13.496;2023-08-07T13:44:07;2.17;;;1.48;;
26696;SDS011;14312;52.614;13.496;2023-08-07T13:46:54;2.13;;;1.88;;
26696;SDS011;14312;52.614;13.496;2023-08-07T13:49:40;4.70;;;1.90;;
26696;SDS011;14312;52.614;13.496;2023-08-07T13:52:26;2.75;;;1.95;;
26696;SDS011;14312;52.614;13.496;2023-08-07T13:55:12;6.05;;;2.10;;
26696;SDS011;14312;52.614;13.496;2023-08-07T13:57:58;2.63;;;1.90;;
26696;SDS011;14312;52.614;13.496;2023-08-07T14:00:44;3.58;;;1.67;;
26696;SDS011;14312;52.614;13.496;2023-08-07T14:03:31;2.67;;;1.70;;
26696;SDS011;14312;52.614;13.496;2023-08-07T14:06:17;3.25;;;2.10;;
26696;SDS011;14312;52.614;13.496;2023-08-07T14:09:03;2.83;;;1.70;;
26696;SDS011;14312;52.614;13.496;2023-08-07T14:11:49;2.60;;;1.67;;
26696;SDS011;14312;52.614;13.496;2023-08-07T14:14:35;2.55;;;1.83;;
26696;SDS011;14312;52.614;13.496;2023-08-07T14:17:21;3.20;;;1.90;;
26696;SDS011;14312;52.614;13.496;2023-08-07T14:20:07;5.93;;;2.35;;
26696;SDS011;14312;52.614;13.496;2023-08-07T14:22:54;3.33;;;1.80;;
26696;SDS011;14312;52.614;13.496;2023-08-07T14:25:40;2.33;;;1.73;;
26696;SDS011;14312;52.614;13.496;2023-08-07T14:28:26;2.20;;;1.30;;
26696;SDS011;14312;52.614;13.496;2023-08-07T14:31:14;2.10;;;1.80;;
26696;SDS011;14312;52.614;13.496;2023-08-07T14:33:59;4.85;;;1.80;;
26696;SDS011;14312;52.614;13.496;2023-08-07T14:36:46;2.40;;;1.60;;
26696;SDS011;14312;52.614;13.496;2023-08-07T14:39:31;3.78;;;1.98;;
26696;SDS011;14312;52.614;13.496;2023-08-07T14:42:17;3.35;;;1.70;;
26696;SDS011;14312;52.614;13.496;2023-08-07T14:45:03;2.95;;;2.00;;
26696;SDS011;14312;52.614;13.496;2023-08-07T14:47:50;2.95;;;1.73;;
26696;SDS011;14312;52.614;13.496;2023-08-07T14:50:36;3.38;;;1.85;;
26696;SDS011;14312;52.614;13.496;2023-08-07T14:53:22;3.88;;;1.90;;
26696;SDS011;14312;52.614;13.496;2023-08-07T14:56:08;3.72;;;2.15;;
26696;SDS011;14312;52.614;13.496;2023-08-07T14:58:54;3.13;;;1.70;;
26696;SDS011;14312;52.614;13.496;2023-08-07T15:01:40;3.33;;;2.00;;
26696;SDS011;14312;52.614;13.496;2023-08-07T15:04:26;2.13;;;1.73;;
26696;SDS011;14312;52.614;13.496;2023-08-07T15:07:12;2.33;;;1.48;;
26696;SDS011;14312;52.614;13.496;2023-08-07T15:09:58;2.85;;;1.65;;
26696;SDS011;14312;52.614;13.496;2023-08-07T15:12:44;3.65;;;1.90;;
26696;SDS011;14312;52.614;13.496;2023-08-07T15:15:30;1.95;;;1.60;;
26696;SDS011;14312;52.614;13.496;2023-08-07T15:18:16;3.67;;;1.63;;
26696;SDS011;14312;52.614;13.496;2023-08-07T15:21:03;1.92;;;1.42;;
26696;SDS011;14312;52.614;13.496;2023-08-07T15:23:49;2.55;;;1.42;;
26696;SDS011;14312;52.614;13.496;2023-08-07T15:26:35;2.47;;;1.30;;
26696;SDS011;14312;52.614;13.496;2023-08-07T15:29:21;3.40;;;1.40;;
26696;SDS011;14312;52.614;13.496;2023-08-07T15:32:07;4.00;;;1.50;;
26696;SDS011;14312;52.614;13.496;2023-08-07T15:34:53;1.80;;;1.30;;
26696;SDS011;14312;52.614;13.496;2023-08-07T15:37:40;2.35;;;1.60;;
26696;SDS011;14312;52.614;13.496;2023-08-07T15:40:26;3.97;;;1.60;;
26696;SDS011;14312;52.614;13.496;2023-08-07T15:43:12;3.53;;;1.30;;
26696;SDS011;14312;52.614;13.496;2023-08-07T15:45:58;4.05;;;1.63;;
26696;SDS011;14312;52.614;13.496;2023-08-07T15:48:44;2.17;;;1.40;;
26696;SDS011;14312;52.614;13.496;2023-08-07T15:51:30;1.85;;;1.30;;
26696;SDS011;14312;52.614;13.496;2023-08-07T15:54:16;1.98;;;1.40;;
26696;SDS011;14312;52.614;13.496;2023-08-07T15:57:02;2.20;;;1.20;;
26696;SDS011;14312;52.614;13.496;2023-08-07T15:59:48;2.03;;;1.38;;
26696;SDS011;14312;52.614;13.496;2023-08-07T16:02:34;4.20;;;1.40;;
26696;SDS011;14312;52.614;13.496;2023-08-07T16:05:20;2.28;;;1.20;;
26696;SDS011;14312;52.614;13.496;2023-08-07T16:08:06;1.92;;;1.45;;
26696;SDS011;14312;52.614;13.496;2023-08-07T16:10:52;3.13;;;1.35;;
26696;SDS011;14312;52.614;13.496;2023-08-07T16:13:38;2.28;;;1.45;;
26696;SDS011;14312;52.614;13.496;2023-08-07T16:16:24;2.10;;;1.48;;
26696;SDS011;14312;52.614;13.496;2023-08-07T16:19:10;1.85;;;1.60;;
26696;SDS011;14312;52.614;13.496;2023-08-07T16:21:57;3.55;;;1.50;;
26696;SDS011;14312;52.614;13.496;2023-08-07T16:24:43;3.67;;;1.80;;
26696;SDS011;14312;52.614;13.496;2023-08-07T16:27:29;4.47;;;1.80;;
26696;SDS011;14312;52.614;13.496;2023-08-07T16:30:15;3.95;;;1.85;;
26696;SDS011;14312;52.614;13.496;2023-08-07T16:33:01;2.42;;;1.75;;